Time;durP1;ratioP1;P1;durP2;ratioP2;P2;SDS_P1;SDS_P2;PMS_P1;PMS_P2;Temp;Humidity;BMP_temperature;BMP_pressure;BME280_temperature;BME280_humidity;BME280_pressure;Samples;Min_cycle;Max_cycle;Signal;HPM_P1;HPM_P2
2022/09/28 00:02:23;;;;;;;43.63;23.10;;;;;;;13.18;100.00;98643.01;1706539;84;21046;-66
2022/09/28 00:04:50;;;;;;;34.95;21.25;;;;;;;13.17;100.00;98644.42;1773130;80;21050;-66
2022/09/28 00:07:16;;;;;;;39.25;23.32;;;;;;;13.21;100.00;98643.27;1772719;80;21076;-67
2022/09/28 00:09:43;;;;;;;47.53;24.15;;;;;;;13.15;100.00;98640.56;1706497;83;21225;-66
2022/09/28 00:12:10;;;;;;;45.12;23.62;;;;;;;13.22;100.00;98637.84;1772660;80;21109;-65
2022/09/28 00:14:39;;;;;;;36.58;22.52;;;;;;;13.19;100.00;98635.43;1773519;80;21126;-65
2022/09/28 00:17:07;;;;;;;38.25;22.55;;;;;;;13.22;100.00;98637.84;1706442;83;21097;-65
2022/09/28 00:19:36;;;;;;;34.27;21.50;;;;;;;13.21;100.00;98635.33;1773183;80;21034;-66
2022/09/28 00:22:03;;;;;;;38.92;22.25;;;;;;;13.23;100.00;98630.30;1706595;84;21149;-65
2022/09/28 00:24:30;;;;;;;38.02;22.42;;;;;;;13.17;100.00;98631.21;1773152;80;21073;-65
2022/09/28 00:26:59;;;;;;;37.63;22.58;;;;;;;13.21;100.00;98631.36;1706335;84;21052;-67
2022/09/28 00:29:32;;;;;;;47.60;23.15;;;;;;;13.23;100.00;98638.72;1773084;80;21021;-65
2022/09/28 00:32:04;;;;;;;39.53;22.73;;;;;;;13.22;100.00;98648.42;1706627;84;21089;-65
2022/09/28 00:34:40;;;;;;;35.90;21.27;;;;;;;13.21;100.00;98642.78;1772972;80;21194;-65
2022/09/28 00:37:07;;;;;;;35.75;20.27;;;;;;;13.21;100.00;98646.74;1772849;80;21088;-65
2022/09/28 00:39:36;;;;;;;55.70;22.35;;;;;;;13.18;100.00;98648.75;1706610;84;21622;-66
2022/09/28 00:42:04;;;;;;;40.92;22.85;;;;;;;13.17;100.00;98653.20;1772888;80;21006;-65
2022/09/28 00:44:44;;;;;;;36.40;21.87;;;;;;;13.16;100.00;98648.04;1750983;80;21108;-69
2022/09/28 00:47:42;;;;;;;33.40;20.77;;;;;;;13.16;100.00;98656.81;1773010;80;21167;-66
2022/09/28 00:50:31;;;;;;;43.95;19.90;;;;;;;13.19;100.00;98654.42;1772798;80;21021;-67
2022/09/28 00:53:14;;;;;;;37.98;21.27;;;;;;;13.18;100.00;98652.27;1772868;80;21041;-70
2022/09/28 00:55:47;;;;;;;35.35;20.85;;;;;;;13.18;100.00;98646.97;1703432;84;21550;-66
2022/09/28 00:58:18;;;;;;;30.75;18.20;;;;;;;13.14;100.00;98640.20;1737118;80;21105;-67
2022/09/28 01:00:44;;;;;;;26.33;17.30;;;;;;;13.13;100.00;98641.14;1772957;80;22132;-67
2022/09/28 01:03:13;;;;;;;30.23;18.75;;;;;;;13.10;100.00;98637.41;1750747;80;21256;-66
2022/09/28 01:05:41;;;;;;;28.67;17.87;;;;;;;13.13;100.00;98629.73;1773139;80;22074;-66
2022/09/28 01:08:07;;;;;;;28.05;17.45;;;;;;;13.10;100.00;98627.32;1772909;80;21545;-66
2022/09/28 01:10:34;;;;;;;24.32;15.63;;;;;;;13.09;100.00;98625.61;1772939;80;21037;-66
2022/09/28 01:13:01;;;;;;;29.48;18.00;;;;;;;13.09;100.00;98633.55;1773185;80;21112;-65
2022/09/28 01:15:28;;;;;;;31.10;18.25;;;;;;;13.04;100.00;98633.87;1773029;80;21011;-67
2022/09/28 01:18:13;;;;;;;31.90;18.05;;;;;;;13.01;100.00;98630.13;1772905;80;21053;-66
2022/09/28 01:21:00;;;;;;;38.13;19.50;;;;;;;12.99;100.00;98633.36;1772784;80;21038;-66
2022/09/28 01:23:38;;;;;;;38.02;21.25;;;;;;;13.01;100.00;98639.38;1773043;80;21357;-65
2022/09/28 01:26:31;;;;;;;31.90;19.00;;;;;;;12.95;100.00;98630.56;1772560;80;21170;-66
2022/09/28 01:29:06;;;;;;;32.95;19.25;;;;;;;12.93;100.00;98631.14;1773136;80;22102;-66
2022/09/28 01:31:34;;;;;;;39.63;21.60;;;;;;;12.95;100.00;98631.42;1772934;80;21089;-66
2022/09/28 01:34:10;;;;;;;36.90;21.70;;;;;;;12.94;100.00;98636.33;1773078;80;21033;-66
2022/09/28 01:36:45;;;;;;;37.65;20.92;;;;;;;12.95;100.00;98636.71;1776954;80;21226;-66
2022/09/28 01:39:18;;;;;;;36.80;21.75;;;;;;;12.93;100.00;98635.97;1773473;80;21146;-65
2022/09/28 01:41:45;;;;;;;42.85;23.15;;;;;;;12.93;100.00;98635.10;1773125;80;21049;-67
2022/09/28 01:44:15;;;;;;;39.15;21.68;;;;;;;12.92;100.00;98634.27;1773584;80;21573;-67
2022/09/28 01:46:45;;;;;;;35.27;21.37;;;;;;;12.93;100.00;98635.10;1771337;80;21622;-66
2022/09/28 01:49:30;;;;;;;40.30;22.60;;;;;;;12.92;100.00;98642.19;1766028;81;21757;-66
2022/09/28 01:52:17;;;;;;;41.00;23.52;;;;;;;12.96;100.00;98644.16;1765842;80;21895;-66
2022/09/28 01:54:49;;;;;;;43.13;24.85;;;;;;;12.98;100.00;98639.61;1764694;81;21069;-66
2022/09/28 01:57:38;;;;;;;45.98;25.12;;;;;;;12.96;100.00;98631.78;1755791;81;21170;-66
2022/09/28 02:00:10;;;;;;;39.13;22.50;;;;;;;12.96;100.00;98628.30;1755958;81;21112;-66
2022/09/28 02:02:58;;;;;;;39.23;23.50;;;;;;;12.92;100.00;98628.14;1765877;81;21140;-66
2022/09/28 02:05:39;;;;;;;40.48;23.35;;;;;;;12.95;100.00;98624.82;1765431;81;21413;-66
2022/09/28 02:08:10;;;;;;;36.68;22.10;;;;;;;12.93;100.00;98631.14;1766032;81;21494;-66
2022/09/28 02:10:51;;;;;;;31.48;20.08;;;;;;;12.90;100.00;98631.36;1765896;81;21041;-66
2022/09/28 02:13:32;;;;;;;36.53;22.05;;;;;;;12.91;100.00;98625.14;1765814;81;21093;-67
2022/09/28 02:16:10;;;;;;;42.08;23.95;;;;;;;12.87;100.00;98623.66;1765951;81;21550;-65
2022/09/28 02:18:37;;;;;;;37.42;22.42;;;;;;;12.88;100.00;98622.70;1765746;81;21262;-66
2022/09/28 02:21:12;;;;;;;44.20;24.37;;;;;;;12.82;100.00;98631.08;1766110;81;21015;-66
2022/09/28 02:23:39;;;;;;;40.33;24.20;;;;;;;12.82;100.00;98628.44;1765811;81;21029;-65
2022/09/28 02:26:09;;;;;;;40.30;25.25;;;;;;;12.81;100.00;98638.13;1766016;81;21030;-65
2022/09/28 02:28:36;;;;;;;42.62;24.63;;;;;;;12.83;100.00;98630.11;1766092;81;26435;-66
2022/09/28 02:31:03;;;;;;;45.78;25.37;;;;;;;12.80;100.00;98633.33;1766045;81;21775;-66
2022/09/28 02:33:36;;;;;;;37.42;23.38;;;;;;;12.87;100.00;98635.55;1765908;81;20987;-65
2022/09/28 02:36:03;;;;;;;42.62;25.10;;;;;;;12.83;100.00;98638.88;1765660;81;21037;-67
2022/09/28 02:38:32;;;;;;;29.67;19.23;;;;;;;12.86;100.00;98636.48;1766184;81;21054;-66
2022/09/28 02:41:40;;;;;;;37.75;23.50;;;;;;;12.83;100.00;98632.75;1766045;81;21045;-66
2022/09/28 02:44:35;;;;;;;41.68;24.90;;;;;;;12.79;100.00;98635.62;1715492;81;21521;-65
2022/09/28 02:47:34;;;;;;;45.35;25.43;;;;;;;12.80;100.00;98630.69;1768057;80;21041;-66
2022/09/28 02:50:42;;;;;;;41.53;23.67;;;;;;;12.77;100.00;98622.16;1773173;80;21014;-66
2022/09/28 02:53:42;;;;;;;49.25;26.17;;;;;;;12.72;100.00;98629.08;1773059;80;21104;-67
2022/09/28 02:56:23;;;;;;;45.48;25.15;;;;;;;12.68;100.00;98629.40;1746572;80;21015;-65
2022/09/28 02:59:22;;;;;;;40.55;24.77;;;;;;;12.65;100.00;98639.67;1736004;82;21092;-66
2022/09/28 03:02:26;;;;;;;41.40;24.43;;;;;;;12.66;100.00;98634.78;1763173;80;21069;-67
2022/09/28 03:05:19;;;;;;;46.53;27.22;;;;;;;12.67;100.00;98636.45;1707702;80;21100;-66
2022/09/28 03:08:05;;;;;;;43.17;24.80;;;;;;;12.71;100.00;98633.97;1755466;80;21065;-66
2022/09/28 03:10:49;;;;;;;39.00;23.42;;;;;;;12.76;100.00;98635.81;1773070;80;21537;-66
2022/09/28 03:13:16;;;;;;;40.15;22.55;;;;;;;12.77;100.00;98641.48;1773338;80;21098;-65
2022/09/28 03:15:43;;;;;;;36.60;19.07;;;;;;;12.76;100.00;98646.86;1773115;80;21183;-67
2022/09/28 03:18:10;;;;;;;37.67;22.27;;;;;;;12.71;100.00;98643.22;1773360;80;22208;-66
2022/09/28 03:20:37;;;;;;;42.13;26.30;;;;;;;12.72;100.00;98634.81;1772928;80;21049;-65
2022/09/28 03:23:04;;;;;;;40.12;24.00;;;;;;;12.74;100.00;98637.71;1772877;80;21513;-65
2022/09/28 03:25:31;;;;;;;41.37;25.50;;;;;;;12.73;100.00;98637.84;1773005;80;21535;-67
2022/09/28 03:27:57;;;;;;;43.98;25.10;;;;;;;12.75;100.00;98627.53;1772757;80;21077;-67
2022/09/28 03:30:24;;;;;;;43.45;25.00;;;;;;;12.73;100.00;98632.08;1773009;80;21105;-66
2022/09/28 03:32:59;;;;;;;41.92;24.90;;;;;;;12.64;100.00;98639.31;1772799;80;21073;-66
2022/09/28 03:35:26;;;;;;;45.30;25.82;;;;;;;12.57;100.00;98627.48;1773219;80;21069;-67
2022/09/28 03:37:55;;;;;;;37.23;23.67;;;;;;;12.66;100.00;98636.09;1772976;80;21103;-65
2022/09/28 03:40:23;;;;;;;39.60;23.47;;;;;;;12.66;100.00;98637.90;1773028;80;21585;-66
2022/09/28 03:42:49;;;;;;;38.75;23.85;;;;;;;12.67;100.00;98642.22;1773166;80;21665;-66
2022/09/28 03:45:16;;;;;;;44.67;25.17;;;;;;;12.67;100.00;98640.41;1773311;80;21594;-65
2022/09/28 03:47:46;;;;;;;48.00;25.68;;;;;;;12.64;100.00;98638.00;1769617;80;21036;-65
2022/09/28 03:50:14;;;;;;;41.37;25.40;;;;;;;12.62;100.00;98639.89;1765673;81;21887;-66
2022/09/28 03:52:40;;;;;;;44.13;25.72;;;;;;;12.64;100.00;98641.96;1765421;81;21480;-67
2022/09/28 03:55:08;;;;;;;40.28;23.98;;;;;;;12.67;100.00;98644.37;1765578;81;21029;-66
2022/09/28 03:57:37;;;;;;;47.75;25.37;;;;;;;12.63;100.00;98640.28;1765553;81;21081;-65
2022/09/28 04:00:05;;;;;;;39.27;24.10;;;;;;;12.64;100.00;98641.96;1765738;81;21104;-66
2022/09/28 04:02:35;;;;;;;44.10;27.67;;;;;;;12.66;100.00;98645.34;1764643;81;21026;-66
2022/09/28 04:05:02;;;;;;;35.73;23.77;;;;;;;12.66;100.00;98638.73;1765679;81;21055;-66
2022/09/28 04:07:29;;;;;;;40.38;23.73;;;;;;;12.65;100.00;98635.71;1765866;81;21649;-66
2022/09/28 04:09:56;;;;;;;35.45;22.17;;;;;;;12.59;100.00;98636.16;1765901;81;21097;-67
2022/09/28 04:12:22;;;;;;;39.38;23.80;;;;;;;12.62;100.00;98643.86;1766107;81;21002;-66
2022/09/28 04:14:50;;;;;;;39.98;23.60;;;;;;;12.63;100.00;98639.41;1766059;81;21330;-65
2022/09/28 04:17:17;;;;;;;43.42;24.40;;;;;;;12.71;100.00;98636.62;1765781;81;21562;-66
2022/09/28 04:19:46;;;;;;;42.60;25.65;;;;;;;12.62;100.00;98638.58;1765987;81;21054;-66
2022/09/28 04:22:17;;;;;;;44.50;25.70;;;;;;;12.64;100.00;98643.28;1765294;81;21041;-67
2022/09/28 04:24:45;;;;;;;42.55;25.82;;;;;;;12.66;100.00;98644.02;1765871;81;21049;-66
2022/09/28 04:29:59;;;;;;;40.40;24.55;;;;;;;12.71;100.00;98637.09;1765750;81;21046;-68
2022/09/28 04:32:26;;;;;;;38.10;23.00;;;;;;;12.72;100.00;98640.97;1765694;81;21113;-67
2022/09/28 04:34:52;;;;;;;41.83;24.20;;;;;;;12.76;100.00;98642.41;1766172;81;21062;-66
2022/09/28 04:37:18;;;;;;;36.80;23.92;;;;;;;12.83;100.00;98645.96;1765836;81;21046;-66
2022/09/28 04:39:45;;;;;;;43.00;24.63;;;;;;;12.77;100.00;98645.44;1766300;81;21086;-66
2022/09/28 04:42:13;;;;;;;36.17;22.32;;;;;;;12.75;100.00;98649.98;1765901;81;21065;-66
2022/09/28 04:44:40;;;;;;;35.92;22.85;;;;;;;12.70;100.00;98644.19;1738584;81;21058;-68
2022/09/28 04:47:09;;;;;;;34.38;21.70;;;;;;;12.70;100.00;98643.31;1766090;80;21065;-66
2022/09/28 04:49:47;;;;;;;48.90;25.30;;;;;;;12.70;100.00;98650.79;1738400;80;21017;-67
2022/09/28 04:52:15;;;;;;;42.75;24.87;;;;;;;12.75;100.00;98650.47;1772332;80;21112;-67
2022/09/28 04:54:42;;;;;;;41.65;25.35;;;;;;;12.73;100.00;98641.31;1768458;80;21767;-66
2022/09/28 04:57:09;;;;;;;43.20;25.92;;;;;;;12.74;100.00;98639.03;1735899;82;21074;-66
2022/09/28 04:59:37;;;;;;;40.52;25.20;;;;;;;12.71;100.00;98640.58;1735787;82;21053;-66
2022/09/28 05:02:04;;;;;;;40.92;24.18;;;;;;;12.77;100.00;98642.80;1735882;82;22130;-66
2022/09/28 05:04:49;;;;;;;42.62;25.05;;;;;;;12.79;100.00;98639.58;1736086;82;21158;-66
2022/09/28 05:07:34;;;;;;;38.13;23.12;;;;;;;12.83;100.00;98645.96;1735898;82;21322;-66
2022/09/28 05:10:04;;;;;;;41.53;24.32;;;;;;;12.89;100.00;98653.47;1736140;82;21065;-66
2022/09/28 05:12:32;;;;;;;38.95;23.15;;;;;;;12.98;100.00;98655.47;1736227;82;21124;-67
2022/09/28 05:15:00;;;;;;;37.25;22.30;;;;;;;12.99;100.00;98643.92;1736097;82;21053;-66
2022/09/28 05:17:26;;;;;;;36.58;22.07;;;;;;;13.08;100.00;98648.56;1736198;82;21156;-66
2022/09/28 05:19:55;;;;;;;45.95;23.73;;;;;;;13.10;100.00;98650.63;1734601;82;21125;-66
2022/09/28 05:22:21;;;;;;;41.90;24.67;;;;;;;13.11;100.00;98644.41;1736334;82;21057;-68
2022/09/28 05:24:48;;;;;;;40.65;26.00;;;;;;;13.14;100.00;98642.85;1736305;82;21061;-67
2022/09/28 05:27:15;;;;;;;45.40;29.72;;;;;;;13.12;100.00;98640.79;1736471;82;21113;-66
2022/09/28 05:29:43;;;;;;;47.20;28.75;;;;;;;13.09;100.00;98638.38;1735979;82;21142;-66
2022/09/28 05:32:23;;;;;;;39.92;24.95;;;;;;;13.10;100.00;98640.53;1683806;82;21614;-67
2022/09/28 05:34:51;;;;;;;38.02;23.02;;;;;;;13.19;100.00;98644.68;1729329;82;21022;-66
2022/09/28 05:37:20;;;;;;;38.33;24.77;;;;;;;13.22;100.00;98640.48;1735418;82;21125;-67
2022/09/28 05:39:46;;;;;;;38.67;24.80;;;;;;;13.23;100.00;98640.88;1736187;82;21167;-67
2022/09/28 05:42:13;;;;;;;42.50;24.07;;;;;;;13.25;100.00;98642.09;1736393;82;21211;-66
2022/09/28 05:44:42;;;;;;;41.75;25.32;;;;;;;13.28;100.00;98645.02;1736161;82;21038;-66
2022/09/28 05:47:09;;;;;;;41.20;26.15;;;;;;;13.32;100.00;98645.14;1736034;82;21046;-66
2022/09/28 05:49:35;;;;;;;43.70;28.00;;;;;;;13.35;100.00;98642.30;1743345;82;21109;-67
2022/09/28 05:52:02;;;;;;;42.27;26.25;;;;;;;13.37;100.00;98639.08;1744025;82;21105;-67
2022/09/28 05:54:30;;;;;;;33.92;21.27;;;;;;;13.38;100.00;98634.98;1744854;81;21104;-67
2022/09/28 05:56:57;;;;;;;41.65;26.60;;;;;;;13.43;100.00;98637.28;1763036;81;21065;-66
2022/09/28 05:59:24;;;;;;;33.75;22.87;;;;;;;13.41;100.00;98641.84;1763488;81;21137;-67
2022/09/28 06:01:51;;;;;;;38.30;23.20;;;;;;;13.40;100.00;98644.97;1762889;81;21030;-66
2022/09/28 06:04:17;;;;;;;37.67;22.52;;;;;;;13.43;100.00;98643.90;1763303;81;21309;-67
2022/09/28 06:06:45;;;;;;;38.85;24.63;;;;;;;13.43;100.00;98643.90;1685391;85;22124;-67
2022/09/28 06:09:11;;;;;;;39.20;25.20;;;;;;;13.51;100.00;98649.97;1762970;81;21041;-66
2022/09/28 06:11:47;;;;;;;39.48;25.75;;;;;;;13.56;100.00;98653.95;1737117;81;21003;-66
2022/09/28 06:14:21;;;;;;;45.00;26.15;;;;;;;13.60;100.00;98651.46;1761792;81;21098;-67
2022/09/28 06:16:48;;;;;;;42.08;25.97;;;;;;;13.63;100.00;98655.20;1763199;81;21088;-67
2022/09/28 06:19:16;;;;;;;36.35;24.02;;;;;;;13.69;100.00;98663.18;1763439;81;21218;-67
2022/09/28 06:21:50;;;;;;;46.83;27.30;;;;;;;13.71;100.00;98653.79;1754238;81;21039;-67
2022/09/28 06:24:17;;;;;;;46.92;27.15;;;;;;;13.69;100.00;98647.77;1763308;81;21503;-66
2022/09/28 06:26:44;;;;;;;38.75;22.77;;;;;;;13.66;100.00;98648.83;1763225;81;21137;-67
2022/09/28 06:29:13;;;;;;;40.52;25.50;;;;;;;13.69;100.00;98651.28;1735491;81;21080;-67
2022/09/28 06:31:39;;;;;;;38.95;23.62;;;;;;;13.62;100.00;98656.17;1685695;85;21157;-67
2022/09/28 06:34:06;;;;;;;39.33;24.75;;;;;;;13.62;100.00;98653.52;1735317;81;21101;-67
2022/09/28 06:36:32;;;;;;;49.20;30.77;;;;;;;13.57;100.00;98657.44;1765721;80;21076;-66
2022/09/28 06:38:59;;;;;;;53.73;33.30;;;;;;;13.57;100.00;98647.73;1754702;80;21042;-68
2022/09/28 06:41:26;;;;;;;47.33;29.20;;;;;;;13.57;100.00;98647.73;1779096;80;21049;-67
2022/09/28 06:43:55;;;;;;;52.93;33.00;;;;;;;13.57;100.00;98654.80;1773224;80;21054;-66
2022/09/28 06:46:40;;;;;;;56.30;32.17;;;;;;;13.60;100.00;98650.14;1744346;82;21038;-67
2022/09/28 06:49:26;;;;;;;53.05;30.32;;;;;;;13.69;100.00;98655.70;1742019;82;21601;-67
2022/09/28 06:51:58;;;;;;;48.87;29.67;;;;;;;13.77;100.00;98646.73;1739883;82;21084;-67
2022/09/28 06:54:29;;;;;;;50.28;30.72;;;;;;;13.80;100.00;98642.07;1712751;82;21052;-67
2022/09/28 06:57:04;;;;;;;43.92;28.10;;;;;;;13.95;100.00;98639.23;1747454;82;21789;-68
2022/09/28 06:59:31;;;;;;;58.52;31.80;;;;;;;14.03;100.00;98628.45;1750163;82;22270;-66
2022/09/28 07:02:01;;;;;;;54.90;32.30;;;;;;;14.15;100.00;98632.42;1750167;82;21053;-66
2022/09/28 07:04:41;;;;;;;43.70;27.33;;;;;;;14.22;100.00;98632.35;1726378;82;21051;-67
2022/09/28 07:07:13;;;;;;;47.43;28.85;;;;;;;14.30;100.00;98632.59;1746615;82;21639;-66
2022/09/28 07:09:59;;;;;;;47.75;27.90;;;;;;;14.35;100.00;98623.81;1760682;80;21468;-67
2022/09/28 07:12:35;;;;;;;46.35;27.42;;;;;;;14.42;100.00;98629.03;1724659;80;21029;-67
2022/09/28 07:15:06;;;;;;;43.17;26.77;;;;;;;14.37;100.00;98625.86;1781168;80;21041;-67
2022/09/28 07:17:33;;;;;;;42.10;27.10;;;;;;;14.34;100.00;98627.92;1781465;80;21557;-67
2022/09/28 07:20:02;;;;;;;39.48;24.63;;;;;;;14.28;100.00;98622.11;1781195;80;21049;-67
2022/09/28 07:22:29;;;;;;;48.23;28.98;;;;;;;14.26;100.00;98621.87;1781109;80;21123;-67
2022/09/28 07:24:57;;;;;;;52.33;28.92;;;;;;;14.25;100.00;98625.00;1781346;80;21089;-67
2022/09/28 07:27:27;;;;;;;41.70;26.45;;;;;;;14.23;100.00;98630.05;1768759;80;21073;-68
2022/09/28 07:29:55;;;;;;;37.98;22.95;;;;;;;14.28;100.00;98626.08;1776649;80;21009;-67
2022/09/28 07:32:24;;;;;;;36.58;23.27;;;;;;;14.35;100.00;98625.14;1779183;80;21061;-67
2022/09/28 07:35:06;;;;;;;41.68;25.05;;;;;;;14.37;100.00;98623.22;1781585;80;21782;-68
2022/09/28 07:37:33;;;;;;;;;;;;;;;14.38;100.00;98622.28;1781791;80;21080;-67
2022/09/28 07:42:51;;;;;;;;;;;;;;;14.35;100.00;98615.87;1784111;80;21083;-67
2022/09/28 07:45:25;;;;;;;40.78;25.02;;;;;;;14.28;100.00;98614.66;1755119;80;20236;-67
2022/09/28 07:47:56;;;;;;;45.65;26.50;;;;;;;14.25;100.00;98613.58;1749995;81;21243;-65
2022/09/28 07:50:52;;;;;;;46.33;26.05;;;;;;;14.27;100.00;98615.63;1750316;82;21006;-67
2022/09/28 07:53:23;;;;;;;39.00;25.90;;;;;;;14.35;100.00;98613.70;1749198;82;21038;-67
2022/09/28 07:56:08;;;;;;;36.03;21.95;;;;;;;14.32;100.00;98614.79;1749521;81;21154;-68
2022/09/28 07:58:52;;;;;;;39.80;26.10;;;;;;;14.35;100.00;98621.16;1750221;82;21024;-67
2022/09/28 08:01:41;;;;;;;40.90;23.85;;;;;;;14.37;100.00;98621.06;1750215;82;21796;-67
2022/09/28 08:04:10;;;;;;;36.83;24.50;;;;;;;14.44;100.00;98621.78;1750402;82;21038;-67
2022/09/28 08:06:39;;;;;;;45.28;25.35;;;;;;;14.41;100.00;98620.70;1750557;82;21046;-67
2022/09/28 08:09:07;;;;;;;39.13;23.83;;;;;;;14.41;100.00;98622.03;1731871;82;21053;-67
2022/09/28 08:11:53;;;;;;;35.85;22.30;;;;;;;14.39;100.00;98622.63;1750527;82;21017;-67
2022/09/28 08:14:42;;;;;;;35.88;21.97;;;;;;;14.34;100.00;98614.68;1749662;81;21506;-66
2022/09/28 08:17:14;;;;;;;43.58;26.52;;;;;;;14.31;100.00;98621.06;1745123;82;21077;-67
2022/09/28 08:22:31;;;;;;;35.68;20.72;;;;;;;14.35;100.00;98612.38;1750260;82;21045;-67
2022/09/28 08:24:57;;;;;;;34.43;23.07;;;;;;;14.37;100.00;98615.27;1750517;82;21509;-67
2022/09/28 08:27:24;;;;;;;31.77;18.90;;;;;;;14.42;100.00;98617.56;1750508;82;21131;-66
2022/09/28 08:29:50;;;;;;;37.60;22.55;;;;;;;14.44;100.00;98611.19;1750188;82;21029;-66
2022/09/28 08:32:36;;;;;;;36.17;21.60;;;;;;;14.51;100.00;98612.05;1750287;82;21608;-67
2022/09/28 08:35:22;;;;;;;31.60;20.02;;;;;;;14.58;100.00;98615.94;1750545;82;21045;-68
2022/09/28 08:38:02;;;;;;;30.77;20.55;;;;;;;14.68;100.00;98618.25;1734055;81;21163;-67
2022/09/28 08:40:35;;;;;;;34.38;22.17;;;;;;;14.79;100.00;98622.69;1748316;82;21617;-66
2022/09/28 08:43:09;;;;;;;33.50;21.33;;;;;;;14.85;100.00;98615.11;1736997;81;20987;-68
2022/09/28 08:45:47;;;;;;;37.70;23.47;;;;;;;14.96;100.00;98620.89;1747366;82;21073;-67
2022/09/28 08:51:25;;;;;;;37.45;23.15;;;;;;;15.38;100.00;98609.13;1727360;82;21100;-68
2022/09/28 08:54:43;;;;;;;29.80;19.48;;;;;;;15.78;100.00;98615.67;1750282;82;21857;-66
2022/09/28 08:57:16;;;;;;;27.98;18.15;;;;;;;16.03;100.00;98613.98;1749253;82;21591;-66
2022/09/28 08:59:58;;;;;;;31.37;18.87;;;;;;;16.46;100.00;98609.03;1750264;82;21521;-66
2022/09/28 09:03:36;;;;;;;28.07;18.95;;;;;;;16.75;100.00;98600.39;1796250;79;22393;-67
2022/09/28 09:06:36;;;;;;;27.67;17.60;;;;;;;16.94;100.00;98599.15;1755996;81;21017;-68
2022/09/28 09:09:20;;;;;;;29.45;19.32;;;;;;;17.15;100.00;98605.72;1752501;81;21607;-67
2022/09/28 09:12:10;;;;;;;32.08;18.62;;;;;;;17.09;100.00;98608.08;1756329;81;20978;-68
2022/09/28 09:15:12;;;;;;;27.48;17.70;;;;;;;16.94;100.00;98604.47;1755755;81;21116;-66
2022/09/28 09:18:07;;;;;;;26.60;17.80;;;;;;;16.78;100.00;98605.42;1755804;81;21049;-66
2022/09/28 09:20:52;;;;;;;30.02;18.50;;;;;;;16.65;100.00;98602.97;1753746;81;21058;-66
2022/09/28 09:23:55;;;;;;;33.42;19.45;;;;;;;16.43;100.00;98610.64;1755281;81;21680;-67
2022/09/28 09:26:38;;;;;;;24.30;16.25;;;;;;;16.36;100.00;98608.15;1755947;81;21032;-67
2022/09/28 09:29:29;;;;;;;27.67;17.12;;;;;;;16.38;100.00;98602.69;1754720;81;21100;-68
2022/09/28 09:32:02;;;;;;;;;;;;;;;16.45;100.00;98611.35;1750231;82;20998;-68
2022/09/28 09:34:57;;;;;;;23.65;14.10;;;;;;;16.47;100.00;98609.41;1747834;81;20174;-66
2022/09/28 09:38:00;;;;;;;15.98;10.78;;;;;;;16.46;100.00;98606.87;1747889;81;21611;-67
2022/09/28 09:41:18;;;;;;;18.42;11.55;;;;;;;16.60;100.00;98610.51;1748271;82;21549;-66
2022/09/28 09:44:20;;;;;;;17.17;11.83;;;;;;;16.76;100.00;98610.03;1747587;81;21085;-66
2022/09/28 09:47:10;;;;;;;14.75;10.48;;;;;;;16.92;100.00;98599.77;1747839;82;21088;-67
2022/09/28 09:50:28;;;;;;;14.87;9.98;;;;;;;17.14;100.00;98600.56;1722484;82;21065;-68
2022/09/28 09:52:58;;;;;;;15.75;11.08;;;;;;;17.26;100.00;98598.13;1747617;81;21734;-68
2022/09/28 09:55:39;;;;;;;20.62;12.37;;;;;;;17.42;100.00;98590.12;1747549;82;21041;-68
2022/09/28 09:58:20;;;;;;;17.07;12.20;;;;;;;17.53;100.00;98591.30;1746590;82;21056;-69
2022/09/28 10:00:51;;;;;;;17.10;12.18;;;;;;;17.74;100.00;98588.03;1747169;82;21018;-68
2022/09/28 10:03:26;;;;;;;18.48;12.30;;;;;;;18.00;100.00;98586.16;1747309;81;21045;-67
2022/09/28 10:06:02;;;;;;;19.02;13.00;;;;;;;18.23;100.00;98591.52;1748511;82;21086;-68
2022/09/28 10:08:34;;;;;;;21.62;13.88;;;;;;;18.43;100.00;98596.83;1748649;82;21041;-69
2022/09/28 10:11:21;;;;;;;23.50;13.53;;;;;;;18.63;98.36;98602.92;1748843;81;20982;-68
2022/09/28 10:13:49;;;;;;;19.50;13.05;;;;;;;18.66;97.29;98603.48;1748072;81;21101;-67
2022/09/28 10:16:24;;;;;;;19.07;12.68;;;;;;;18.63;96.37;98614.45;1715863;82;21231;-67
2022/09/28 10:18:52;;;;;;;19.05;12.07;;;;;;;18.70;97.02;98605.85;1747798;82;21060;-67
2022/09/28 10:21:29;;;;;;;20.27;12.93;;;;;;;18.66;96.14;98607.48;1684183;84;21081;-67
2022/09/28 10:24:08;;;;;;;24.85;13.80;;;;;;;18.58;98.32;98610.52;1746389;82;21013;-68
2022/09/28 10:26:38;;;;;;;25.03;15.00;;;;;;;18.48;97.77;98615.89;1748134;82;21412;-67
2022/09/28 10:29:16;;;;;;;26.05;15.13;;;;;;;18.33;98.11;98617.31;1748150;82;21620;-67
2022/09/28 10:31:47;;;;;;;23.42;13.90;;;;;;;18.03;99.53;98612.01;1748069;81;21143;-68
2022/09/28 10:34:21;;;;;;;21.05;13.62;;;;;;;17.82;99.94;98613.48;1747536;81;21029;-66
2022/09/28 10:36:59;;;;;;;24.43;14.63;;;;;;;17.71;100.00;98613.59;1747738;81;21081;-69
2022/09/28 10:39:33;;;;;;;27.87;15.83;;;;;;;17.46;100.00;98623.44;1748339;82;21036;-68
2022/09/28 10:42:06;;;;;;;24.92;16.12;;;;;;;17.24;100.00;98614.72;1748297;82;21073;-66
2022/09/28 10:44:44;;;;;;;30.35;16.60;;;;;;;17.18;100.00;98620.56;1731205;82;21684;-67
2022/09/28 10:47:16;;;;;;;29.50;16.25;;;;;;;17.14;100.00;98617.84;1712073;83;21061;-70
2022/09/28 10:49:46;;;;;;;37.70;19.60;;;;;;;17.13;100.00;98618.31;1718289;83;21706;-67
2022/09/28 10:52:40;;;;;;;32.38;17.55;;;;;;;17.09;100.00;98621.37;1691405;83;21061;-69
2022/09/28 10:55:30;;;;;;;29.10;17.12;;;;;;;17.02;100.00;98618.91;1718470;83;21129;-67
2022/09/28 10:57:59;;;;;;;32.33;16.50;;;;;;;17.02;100.00;98617.58;1691265;83;21146;-68
2022/09/28 11:00:41;;;;;;;35.93;17.83;;;;;;;16.94;100.00;98604.47;1718128;83;21030;-67
2022/09/28 11:03:26;;;;;;;37.15;19.70;;;;;;;16.93;100.00;98604.13;1717974;83;21100;-68
2022/09/28 11:06:06;;;;;;;36.23;19.55;;;;;;;16.84;100.00;98600.08;1718304;83;21037;-68
2022/09/28 11:08:39;;;;;;;46.00;22.98;;;;;;;16.79;100.00;98604.47;1718256;83;21049;-67
2022/09/28 11:11:14;;;;;;;43.15;22.58;;;;;;;16.81;100.00;98613.65;1718438;83;21506;-67
2022/09/28 11:13:53;;;;;;;43.65;21.27;;;;;;;16.75;100.00;98613.67;1691258;83;21056;-68
2022/09/28 11:16:31;;;;;;;45.45;23.65;;;;;;;16.73;100.00;98612.97;1718538;82;21494;-67
2022/09/28 11:19:03;;;;;;;41.37;21.75;;;;;;;16.67;100.00;98612.16;1718051;83;21081;-67
2022/09/28 11:21:33;;;;;;;41.23;20.25;;;;;;;16.69;100.00;98619.52;1717775;83;21120;-65
2022/09/28 11:24:07;;;;;;;47.48;24.65;;;;;;;16.70;100.00;98603.91;1717943;83;21537;-68
2022/09/28 11:26:46;;;;;;;59.05;26.60;;;;;;;16.72;100.00;98600.14;1716703;83;21100;-67
2022/09/28 11:29:32;;;;;;;49.67;23.45;;;;;;;16.74;100.00;98601.34;1718049;83;21041;-67
2022/09/28 11:32:17;;;;;;;54.03;26.85;;;;;;;16.77;100.00;98595.75;1718148;83;21045;-67
2022/09/28 11:34:45;;;;;;;44.63;24.67;;;;;;;16.81;100.00;98591.89;1714116;83;21068;-68
2022/09/28 11:37:20;;;;;;;46.15;25.52;;;;;;;16.91;100.00;98596.77;1718422;83;21077;-67
2022/09/28 11:40:16;;;;;;;48.68;25.02;;;;;;;17.07;100.00;98596.73;1718007;83;21116;-68
2022/09/28 11:42:48;;;;;;;48.10;26.17;;;;;;;17.14;100.00;98590.75;1717667;83;21120;-68
2022/09/28 11:45:52;;;;;;;52.45;26.20;;;;;;;17.24;100.00;98594.77;1742835;82;21072;-67
2022/09/28 11:48:26;;;;;;;49.08;26.10;;;;;;;17.26;100.00;98596.80;1747869;82;21037;-67
2022/09/28 11:51:07;;;;;;;52.53;27.50;;;;;;;17.36;100.00;98587.00;1747622;81;21222;-68
2022/09/28 11:53:39;;;;;;;43.93;25.50;;;;;;;17.42;100.00;98594.11;1748048;82;21097;-69
2022/09/28 11:56:17;;;;;;;48.33;24.15;;;;;;;17.46;100.00;98593.70;1747821;81;21529;-66
2022/09/28 11:58:53;;;;;;;39.18;22.25;;;;;;;17.54;100.00;98586.34;1747931;81;21549;-67